Time;durP1;ratioP1;P1;durP2;ratioP2;P2;SDS_P1;SDS_P2;PMS_P1;PMS_P2;Temp;Humidity;BMP_temperature;BMP_pressure;BME280_temperature;BME280_humidity;BME280_pressure;Samples;Min_cycle;Max_cycle;Signal;HPM_P1;HPM_P2
2023/05/07 00:02:00;;;;;;;;;;;;;;;9.89;100.00;100982.22;5115492;28;20538;-87
2023/05/07 00:04:28;;;;;;;13.50;3.13;;;;;;;9.27;100.00;100910.88;5115053;27;19968;-85
2023/05/07 00:06:55;;;;;;;13.82;3.58;;;;;;;9.45;100.00;100925.13;5115978;28;20043;-87
2023/05/07 00:09:22;;;;;;;12.48;3.53;;;;;;;9.54;100.00;100941.47;5114599;28;20047;-88
2023/05/07 00:11:48;;;;;;;21.00;3.17;;;;;;;9.58;100.00;100945.69;5113971;28;20051;-86
2023/05/07 00:14:15;;;;;;;10.27;3.25;;;;;;;9.54;100.00;100917.94;5114919;28;20059;-87
2023/05/07 00:16:42;;;;;;;14.68;4.03;;;;;;;9.51;100.00;100950.25;5100265;28;20473;-87
2023/05/07 00:19:09;;;;;;;44.40;5.05;;;;;;;9.08;100.00;100896.63;5115867;28;20051;-87
2023/05/07 00:21:35;;;;;;;19.15;3.60;;;;;;;9.33;100.00;100920.31;5113765;28;20058;-87
2023/05/07 00:24:03;;;;;;;8.18;2.75;;;;;;;9.25;100.00;100889.16;5113509;28;20047;-87
2023/05/07 00:26:30;;;;;;;17.38;3.22;;;;;;;9.52;100.00;100919.75;5114497;28;20044;-87
2023/05/07 00:28:56;;;;;;;29.67;5.18;;;;;;;9.17;100.00;100911.19;5114156;28;20055;-87
2023/05/07 00:31:23;;;;;;;26.50;5.75;;;;;;;9.68;100.00;100976.75;5113297;28;20047;-86
2023/05/07 00:33:50;;;;;;;26.50;5.57;;;;;;;9.27;100.00;100923.09;5111721;28;20048;-87
2023/05/07 00:36:16;;;;;;;11.00;2.80;;;;;;;9.56;100.00;100921.34;5110327;28;20402;-87
2023/05/07 00:38:43;;;;;;;10.50;4.00;;;;;;;9.31;100.00;100943.88;5112263;28;20044;-87
2023/05/07 00:41:10;;;;;;;9.93;3.40;;;;;;;9.36;100.00;100971.63;5100214;28;20051;-87
2023/05/07 00:43:37;;;;;;;34.03;5.60;;;;;;;9.18;100.00;100931.19;5113801;28;20393;-87
2023/05/07 00:46:05;;;;;;;29.38;5.00;;;;;;;9.18;100.00;100950.31;5107921;28;20047;-87
2023/05/07 00:48:32;;;;;;;28.13;3.50;;;;;;;9.20;100.00;100945.91;5106540;28;20116;-87
2023/05/07 00:50:59;;;;;;;11.98;3.53;;;;;;;9.27;100.00;100959.66;5113563;28;20051;-87
2023/05/07 00:53:26;;;;;;;29.45;5.13;;;;;;;8.87;100.00;100927.69;5113170;28;20730;-88
2023/05/07 00:55:53;;;;;;;20.52;5.22;;;;;;;8.99;100.00;100925.63;5115028;28;20063;-88
2023/05/07 00:58:21;;;;;;;67.32;7.03;;;;;;;8.96;100.00;100934.41;5107679;28;20044;-87
2023/05/07 01:00:47;;;;;;;14.88;3.72;;;;;;;9.33;100.00;100925.53;5123615;27;20044;-87
2023/05/07 01:03:14;;;;;;;19.10;4.38;;;;;;;9.29;100.00;100947.41;5106497;28;20101;-87
2023/05/07 01:05:44;;;;;;;40.35;5.68;;;;;;;9.26;100.00;100947.50;5106891;28;20044;-87
2023/05/07 01:08:14;;;;;;;18.40;3.38;;;;;;;9.07;100.00;100949.78;5113055;28;20035;-85
2023/05/07 01:10:42;;;;;;;18.48;3.38;;;;;;;8.98;100.00;100953.50;5112712;28;20494;-86
2023/05/07 01:13:10;;;;;;;25.92;4.15;;;;;;;9.08;100.00;100954.09;5112633;28;20472;-86
2023/05/07 01:15:38;;;;;;;18.27;3.72;;;;;;;9.13;100.00;100932.16;5105155;28;20469;-86
2023/05/07 01:18:06;;;;;;;9.50;2.85;;;;;;;9.18;100.00;100937.28;5109467;28;20052;-87
2023/05/07 01:20:33;;;;;;;16.55;3.92;;;;;;;9.23;100.00;100953.66;5113589;28;20048;-87
2023/05/07 01:23:00;;;;;;;27.15;5.20;;;;;;;9.40;100.00;100979.34;5112932;28;20055;-86
2023/05/07 01:25:28;;;;;;;6.15;2.17;;;;;;;9.44;100.00;100954.81;5114139;28;20054;-87
2023/05/07 01:27:54;;;;;;;16.45;3.85;;;;;;;9.19;100.00;100932.88;5113092;28;20048;-87
2023/05/07 01:30:22;;;;;;;12.50;2.83;;;;;;;9.20;100.00;100940.69;5113138;28;20051;-87
2023/05/07 01:32:58;;;;;;;49.67;7.35;;;;;;;9.15;100.00;100950.41;5113554;28;20074;-87
2023/05/07 01:35:30;;;;;;;6.95;2.22;;;;;;;9.37;100.00;100968.13;5112860;28;20044;-86
2023/05/07 01:37:57;;;;;;;15.93;2.97;;;;;;;9.19;100.00;100945.94;5107328;28;20591;-86
2023/05/07 01:40:25;;;;;;;24.42;4.60;;;;;;;9.41;100.00;100962.72;5106809;28;20058;-87
2023/05/07 01:42:54;;;;;;;7.57;2.45;;;;;;;9.10;100.00;100919.22;5103827;28;20047;-87
2023/05/07 01:45:21;;;;;;;23.02;5.00;;;;;;;8.93;100.00;100892.72;5112966;28;20059;-87
2023/05/07 01:47:47;;;;;;;8.40;2.63;;;;;;;9.33;100.00;100936.00;5112279;28;20044;-87
2023/05/07 01:50:16;;;;;;;8.35;2.60;;;;;;;9.18;100.00;100899.84;5102073;28;20109;-87
2023/05/07 01:52:43;;;;;;;9.48;3.13;;;;;;;9.34;100.00;100916.78;5109813;28;20051;-87
2023/05/07 01:55:10;;;;;;;8.45;2.78;;;;;;;9.49;100.00;100925.91;5114265;28;20048;-88
2023/05/07 01:57:37;;;;;;;14.85;3.00;;;;;;;9.67;100.00;100959.34;5111638;28;20039;-86
2023/05/07 02:00:05;;;;;;;11.18;3.58;;;;;;;9.32;100.00;100918.59;5101185;28;20817;-87
2023/05/07 02:02:31;;;;;;;14.95;3.83;;;;;;;9.37;100.00;100934.97;5112306;28;20055;-87
2023/05/07 02:05:00;;;;;;;9.70;3.00;;;;;;;9.58;100.00;100959.63;5113517;28;20044;-87
2023/05/07 02:07:28;;;;;;;22.05;4.65;;;;;;;9.55;100.00;100964.94;5112389;28;20039;-87
2023/05/07 02:09:55;;;;;;;10.05;3.55;;;;;;;9.56;100.00;100968.41;5112199;28;20487;-87
2023/05/07 02:12:22;;;;;;;13.85;3.63;;;;;;;9.52;100.00;100969.41;5112573;28;20043;-88
2023/05/07 02:14:49;;;;;;;8.68;2.47;;;;;;;9.69;100.00;100968.00;5125920;28;20047;-85
2023/05/07 02:17:16;;;;;;;13.15;3.78;;;;;;;9.49;100.00;100929.41;5103076;28;20052;-87
2023/05/07 02:19:43;;;;;;;10.85;3.40;;;;;;;9.55;100.00;100943.19;5108666;28;20104;-87
2023/05/07 02:22:10;;;;;;;7.47;2.80;;;;;;;9.56;100.00;100960.56;5111373;28;20100;-87
2023/05/07 02:24:36;;;;;;;10.68;3.00;;;;;;;9.30;100.00;100904.72;5111313;28;20109;-87
2023/05/07 02:27:03;;;;;;;8.02;2.45;;;;;;;9.72;100.00;100954.00;5111653;28;20047;-87
2023/05/07 02:29:30;;;;;;;9.00;2.60;;;;;;;9.85;100.00;100960.53;5111442;28;20052;-87
2023/05/07 02:31:57;;;;;;;7.38;2.47;;;;;;;9.71;100.00;100940.97;5110857;28;20051;-87
2023/05/07 02:34:23;;;;;;;7.28;2.67;;;;;;;9.52;100.00;100911.91;5110792;28;20058;-88
2023/05/07 02:36:50;;;;;;;10.35;3.05;;;;;;;9.79;100.00;100965.09;5111674;28;20047;-87
2023/05/07 02:39:17;;;;;;;10.73;3.65;;;;;;;9.55;100.00;100943.19;5112252;28;20048;-87
2023/05/07 02:41:44;;;;;;;10.38;2.65;;;;;;;9.60;100.00;100952.59;5111751;28;20052;-87
2023/05/07 02:44:10;;;;;;;9.90;3.50;;;;;;;9.56;100.00;100950.09;5113153;28;20051;-87
2023/05/07 02:46:37;;;;;;;8.93;2.92;;;;;;;9.67;100.00;100899.22;5113119;28;20484;-87
2023/05/07 02:49:04;;;;;;;9.75;3.15;;;;;;;10.13;100.00;100951.84;5112408;28;20043;-87
2023/05/07 02:51:31;;;;;;;10.00;3.60;;;;;;;10.21;100.00;100939.34;5113455;27;20051;-88
2023/05/07 02:53:57;;;;;;;9.70;3.17;;;;;;;10.29;100.00;100948.69;5112074;28;20076;-87
2023/05/07 02:56:26;;;;;;;9.02;2.90;;;;;;;10.01;100.00;100911.22;5098243;28;20441;-87
2023/05/07 02:58:53;;;;;;;12.45;3.78;;;;;;;10.26;100.00;100966.22;5101959;28;20035;-87
2023/05/07 03:01:20;;;;;;;6.93;2.33;;;;;;;10.20;100.00;100921.09;5114755;28;20040;-87
2023/05/07 03:03:47;;;;;;;17.50;3.88;;;;;;;10.15;100.00;100915.16;5114503;28;20047;-87
2023/05/07 03:06:14;;;;;;;9.27;2.45;;;;;;;10.08;100.00;100878.72;5115735;28;20043;-87
2023/05/07 03:08:41;;;;;;;9.25;3.10;;;;;;;10.39;100.00;100929.19;5117189;28;20396;-87
2023/05/07 03:11:08;;;;;;;8.15;2.58;;;;;;;10.48;100.00;100946.34;5115695;28;20396;-88
2023/05/07 03:13:35;;;;;;;15.82;4.65;;;;;;;10.05;100.00;100906.75;5115007;28;20449;-86
2023/05/07 03:16:02;;;;;;;13.57;3.97;;;;;;;10.30;100.00;100955.66;5115873;28;20059;-86
2023/05/07 03:18:29;;;;;;;11.60;3.40;;;;;;;10.14;100.00;100926.50;5110165;28;20046;-87
2023/05/07 03:20:55;;;;;;;10.30;2.95;;;;;;;9.96;100.00;100909.66;5115818;28;20381;-87
2023/05/07 03:23:22;;;;;;;14.70;3.78;;;;;;;10.01;100.00;100932.16;5109980;28;20048;-87
2023/05/07 03:25:51;;;;;;;17.30;4.30;;;;;;;10.03;100.00;100935.56;5106066;28;20135;-86
2023/05/07 03:28:17;;;;;;;19.77;4.55;;;;;;;9.97;100.00;100912.22;5097285;28;20044;-86
2023/05/07 03:30:44;;;;;;;25.48;4.78;;;;;;;10.08;100.00;100932.81;5115251;28;20057;-86
2023/05/07 03:33:11;;;;;;;21.15;5.05;;;;;;;10.02;100.00;100927.75;5115361;28;20126;-87
2023/05/07 03:35:38;;;;;;;10.60;3.58;;;;;;;10.10;100.00;100930.16;5116330;28;20058;-87
2023/05/07 03:38:05;;;;;;;17.65;4.05;;;;;;;9.95;100.00;100895.72;5116282;28;20055;-87
2023/05/07 03:40:31;;;;;;;14.93;3.67;;;;;;;10.10;100.00;100920.53;5115612;28;20413;-86
2023/05/07 03:43:00;;;;;;;10.05;3.10;;;;;;;10.29;100.00;100943.47;5110866;28;20366;-86
2023/05/07 03:45:27;;;;;;;8.25;2.47;;;;;;;10.30;100.00;100927.72;5102096;28;20048;-87
2023/05/07 03:47:53;;;;;;;11.77;3.45;;;;;;;10.00;100.00;100887.72;5110631;28;20477;-86
2023/05/07 03:50:20;;;;;;;14.73;4.10;;;;;;;10.39;100.00;100963.22;5114997;28;20044;-86
2023/05/07 03:52:47;;;;;;;17.42;3.55;;;;;;;10.10;100.00;100889.13;5111526;28;20040;-86
2023/05/07 03:55:13;;;;;;;12.10;3.55;;;;;;;10.19;100.00;100904.53;5115774;28;20047;-86
2023/05/07 03:57:40;;;;;;;22.33;4.00;;;;;;;10.03;100.00;100898.94;5116561;28;20498;-86
2023/05/07 04:00:08;;;;;;;21.95;4.85;;;;;;;10.12;100.00;100915.25;5114759;28;20050;-86
2023/05/07 04:02:35;;;;;;;9.80;3.13;;;;;;;10.05;100.00;100891.88;5115314;28;20075;-86
2023/05/07 04:05:02;;;;;;;19.40;4.57;;;;;;;10.31;100.00;100947.78;5114927;28;20043;-86
2023/05/07 04:07:29;;;;;;;21.15;4.85;;;;;;;10.25;100.00;100933.13;5114446;28;20058;-86
2023/05/07 04:09:56;;;;;;;15.15;3.95;;;;;;;10.31;100.00;100924.22;5113706;28;20048;-86
2023/05/07 04:12:22;;;;;;;17.10;4.57;;;;;;;10.20;100.00;100921.09;5113864;28;20046;-86
2023/05/07 04:14:50;;;;;;;34.50;5.93;;;;;;;10.00;100.00;100925.19;5109535;28;20058;-87
2023/05/07 04:17:16;;;;;;;41.10;7.10;;;;;;;9.94;100.00;100932.41;5113039;28;20058;-87
2023/05/07 04:19:45;;;;;;;47.70;6.45;;;;;;;9.58;100.00;100869.88;5111353;28;20474;-86
2023/05/07 04:22:12;;;;;;;19.80;5.63;;;;;;;10.01;100.00;100918.22;5097351;28;20767;-87
2023/05/07 04:24:39;;;;;;;14.63;3.63;;;;;;;9.78;100.00;100879.72;5115890;28;20043;-86
2023/05/07 04:27:06;;;;;;;20.35;4.95;;;;;;;10.04;100.00;100905.91;5101405;28;20052;-86
2023/05/07 04:29:33;;;;;;;12.60;4.25;;;;;;;10.11;100.00;100909.16;5114686;28;20043;-86
2023/05/07 04:32:00;;;;;;;45.90;8.50;;;;;;;10.15;100.00;100923.00;5114391;28;20050;-86
2023/05/07 04:34:27;;;;;;;12.20;4.85;;;;;;;10.13;100.00;100901.25;5115233;28;20093;-86
2023/05/07 04:36:53;;;;;;;17.25;4.20;;;;;;;10.00;100.00;100904.25;5113795;28;20093;-86
2023/05/07 04:39:20;;;;;;;16.88;4.72;;;;;;;9.84;100.00;100903.94;5114561;28;20046;-86
2023/05/07 04:41:47;;;;;;;14.38;4.43;;;;;;;10.00;100.00;100909.50;5112997;28;20054;-86
2023/05/07 04:44:13;;;;;;;12.88;3.55;;;;;;;9.91;100.00;100901.09;5111332;28;20048;-86
2023/05/07 04:46:40;;;;;;;28.75;5.82;;;;;;;9.78;100.00;100891.03;5102092;28;20039;-86
2023/05/07 04:49:07;;;;;;;10.82;3.60;;;;;;;10.05;100.00;100909.34;5114354;28;20051;-86
2023/05/07 04:51:33;;;;;;;18.05;4.70;;;;;;;10.02;100.00;100912.94;5104533;28;20048;-86
2023/05/07 04:54:00;;;;;;;14.18;3.92;;;;;;;10.12;100.00;100913.47;5112733;28;20047;-86
2023/05/07 04:56:29;;;;;;;27.05;4.93;;;;;;;9.89;100.00;100909.84;5113630;28;20043;-86
2023/05/07 04:58:56;;;;;;;26.98;5.28;;;;;;;9.64;100.00;100872.31;5113979;28;20040;-86
2023/05/07 05:01:23;;;;;;;24.25;5.18;;;;;;;9.85;100.00;100926.53;5109255;28;20044;-86
2023/05/07 05:03:50;;;;;;;23.20;6.28;;;;;;;9.84;100.00;100924.84;5112054;28;20048;-86
2023/05/07 05:06:16;;;;;;;32.95;6.97;;;;;;;9.74;100.00;100912.97;5113062;28;20052;-86
2023/05/07 05:08:43;;;;;;;12.18;3.67;;;;;;;9.96;100.00;100923.59;5114424;28;20036;-86
2023/05/07 05:11:10;;;;;;;16.00;4.10;;;;;;;9.97;100.00;100907.00;5114012;28;20760;-86
2023/05/07 05:13:37;;;;;;;17.40;5.07;;;;;;;9.87;100.00;100897.72;5113799;28;20058;-86
2023/05/07 05:16:04;;;;;;;26.33;5.15;;;;;;;9.89;100.00;100914.22;5109673;28;20440;-86
2023/05/07 05:18:30;;;;;;;15.80;3.85;;;;;;;9.85;100.00;100889.09;5125921;27;20040;-85
2023/05/07 05:20:57;;;;;;;28.60;5.80;;;;;;;9.95;100.00;100916.66;5099943;28;20055;-85
2023/05/07 05:23:24;;;;;;;16.63;4.65;;;;;;;10.08;100.00;100928.41;5125726;27;20385;-86
2023/05/07 05:25:56;;;;;;;29.60;5.63;;;;;;;10.30;100.00;100953.03;5112064;28;20059;-87
2023/05/07 05:28:23;;;;;;;18.65;4.57;;;;;;;10.09;100.00;100921.41;5112267;28;20396;-87
2023/05/07 05:30:50;;;;;;;10.20;3.35;;;;;;;10.12;100.00;100904.78;5111569;28;20047;-87
2023/05/07 05:33:17;;;;;;;12.40;4.43;;;;;;;9.96;100.00;100900.03;5108953;28;20500;-86
2023/05/07 05:35:43;;;;;;;18.30;4.50;;;;;;;10.35;100.00;100948.53;5126166;27;20051;-86
2023/05/07 05:38:10;;;;;;;15.48;4.43;;;;;;;10.26;100.00;100953.13;5113699;28;20051;-86
2023/05/07 05:40:37;;;;;;;16.85;4.95;;;;;;;10.17;100.00;100937.72;5112569;28;20043;-86
2023/05/07 05:43:04;;;;;;;15.93;3.83;;;;;;;10.49;100.00;100972.50;5113248;28;20044;-87
2023/05/07 05:45:30;;;;;;;16.60;4.57;;;;;;;10.48;100.00;100985.63;5111222;28;20139;-85
2023/05/07 05:47:57;;;;;;;20.98;4.85;;;;;;;10.34;100.00;100968.63;5108019;28;20055;-87
2023/05/07 05:50:24;;;;;;;14.70;4.80;;;;;;;10.10;100.00;100941.47;5103725;28;20052;-86
2023/05/07 05:52:51;;;;;;;48.00;6.32;;;;;;;10.04;100.00;100939.91;5104451;28;20131;-87
2023/05/07 05:55:18;;;;;;;11.23;3.83;;;;;;;10.12;100.00;100942.25;5102234;28;20055;-86
2023/05/07 05:57:45;;;;;;;31.92;5.80;;;;;;;10.35;100.00;100972.09;5113589;28;20393;-86
2023/05/07 06:00:13;;;;;;;18.60;4.50;;;;;;;10.27;100.00;100960.09;5113068;28;20054;-87
2023/05/07 06:02:40;;;;;;;65.85;9.15;;;;;;;10.01;100.00;100941.75;5109573;28;20044;-87
2023/05/07 06:05:07;;;;;;;14.25;4.57;;;;;;;10.20;100.00;100928.94;5111959;28;20055;-87
2023/05/07 06:07:34;;;;;;;12.48;4.20;;;;;;;10.32;100.00;100954.72;5106173;28;20550;-87
2023/05/07 06:10:01;;;;;;;14.93;3.88;;;;;;;10.21;100.00;100936.72;5112417;28;20044;-87
2023/05/07 06:12:28;;;;;;;29.60;5.47;;;;;;;9.98;100.00;100924.38;5110381;28;20055;-87
2023/05/07 06:14:55;;;;;;;23.67;6.22;;;;;;;9.93;100.00;100930.69;5100549;28;20044;-87
2023/05/07 06:17:21;;;;;;;10.10;3.75;;;;;;;10.36;100.00;100969.44;5094962;28;20044;-87
2023/05/07 06:19:48;;;;;;;9.80;3.05;;;;;;;10.57;100.00;100995.78;5107783;28;20043;-87
2023/05/07 06:22:15;;;;;;;44.38;5.78;;;;;;;10.72;100.00;101008.38;5099469;28;20121;-87
2023/05/07 06:24:42;;;;;;;31.65;6.30;;;;;;;10.34;100.00;100962.53;5112425;28;20043;-87
2023/05/07 06:27:08;;;;;;;31.38;6.53;;;;;;;10.16;100.00;100936.00;5093470;28;20051;-89
2023/05/07 06:29:35;;;;;;;17.52;6.15;;;;;;;10.26;100.00;100940.03;5104379;28;20047;-86
2023/05/07 06:32:12;;;;;;;12.93;3.90;;;;;;;10.56;100.00;100971.38;5112519;28;20048;-85
2023/05/07 06:34:40;;;;;;;16.25;5.10;;;;;;;10.39;100.00;100981.56;5112958;28;20131;-85
2023/05/07 06:37:07;;;;;;;23.70;7.00;;;;;;;10.30;100.00;100979.22;5097574;28;20058;-85
2023/05/07 06:39:34;;;;;;;29.33;7.72;;;;;;;10.42;100.00;100998.00;5115672;28;20055;-86
2023/05/07 06:42:02;;;;;;;25.70;7.72;;;;;;;10.12;100.00;100965.81;5111586;28;20048;-86
2023/05/07 06:44:28;;;;;;;17.65;5.88;;;;;;;9.79;100.00;100929.38;5108829;28;20048;-88
2023/05/07 06:46:55;;;;;;;16.08;5.75;;;;;;;10.29;100.00;100973.13;5105120;28;20048;-87
2023/05/07 06:49:22;;;;;;;14.73;5.68;;;;;;;10.34;100.00;100960.78;5109492;28;20040;-87
2023/05/07 06:51:49;;;;;;;25.77;7.15;;;;;;;10.42;100.00;101013.72;5110578;28;20071;-85
2023/05/07 06:54:16;;;;;;;51.78;9.55;;;;;;;10.13;100.00;100953.56;5113124;28;20054;-87
2023/05/07 06:56:43;;;;;;;23.33;6.18;;;;;;;10.21;100.00;100972.50;5110519;28;20500;-87
2023/05/07 06:59:09;;;;;;;34.25;8.20;;;;;;;10.56;100.00;101025.50;5111255;28;20051;-87
2023/05/07 07:01:36;;;;;;;19.73;6.18;;;;;;;10.41;100.00;100988.47;5111748;28;20048;-87
2023/05/07 07:04:03;;;;;;;16.55;5.63;;;;;;;10.53;100.00;100989.78;5106715;28;20047;-87
2023/05/07 07:06:31;;;;;;;23.67;6.88;;;;;;;10.29;100.00;100975.75;5111247;28;20048;-86
2023/05/07 07:08:59;;;;;;;34.47;7.22;;;;;;;10.08;100.00;100961.59;5115436;28;20518;-84
2023/05/07 07:11:25;;;;;;;18.80;6.40;;;;;;;10.57;100.00;100993.16;5112426;28;20500;-84
2023/05/07 07:13:54;;;;;;;33.17;7.78;;;;;;;10.11;100.00;100945.78;5102761;28;20070;-84
2023/05/07 07:16:21;;;;;;;30.25;7.68;;;;;;;10.35;100.00;100993.88;5099773;28;20048;-84
2023/05/07 07:18:48;;;;;;;22.02;6.90;;;;;;;10.33;100.00;100990.47;5107110;28;20044;-83
2023/05/07 07:21:15;;;;;;;14.05;4.95;;;;;;;10.30;100.00;100963.50;5108788;28;20048;-83
2023/05/07 07:23:42;;;;;;;16.92;5.45;;;;;;;10.45;100.00;100978.75;5105227;28;20555;-84
2023/05/07 07:26:08;;;;;;;53.97;8.15;;;;;;;10.66;100.00;100994.63;5106066;28;20058;-85
2023/05/07 07:28:42;;;;;;;28.30;6.68;;;;;;;10.36;100.00;100973.81;5100051;28;20044;-84
2023/05/07 07:31:11;;;;;;;24.15;5.95;;;;;;;10.39;100.00;100971.06;5104884;28;20702;-84
2023/05/07 07:33:38;;;;;;;20.08;5.50;;;;;;;10.50;100.00;100982.06;5111059;28;20180;-85
2023/05/07 07:36:06;;;;;;;17.92;6.13;;;;;;;10.58;100.00;101008.84;5101572;28;20170;-84
2023/05/07 07:38:33;;;;;;;19.25;4.80;;;;;;;10.76;100.00;101015.22;5113531;28;20066;-84
2023/05/07 07:41:01;;;;;;;25.00;8.35;;;;;;;10.71;100.00;101019.78;5110735;28;20048;-85
2023/05/07 07:43:28;;;;;;;21.25;6.10;;;;;;;10.70;100.00;101030.31;5109739;28;20047;-85
2023/05/07 07:45:55;;;;;;;15.20;6.60;;;;;;;10.43;100.00;100993.66;5107729;28;20059;-85
2023/05/07 07:48:22;;;;;;;21.90;7.88;;;;;;;10.51;100.00;101004.72;5101130;28;20153;-86
2023/05/07 07:50:51;;;;;;;12.70;4.47;;;;;;;10.95;100.00;101031.16;5108412;28;20055;-85
2023/05/07 07:53:18;;;;;;;11.43;3.97;;;;;;;10.68;100.00;101011.13;5111861;28;20127;-85
2023/05/07 07:55:45;;;;;;;10.70;3.35;;;;;;;10.91;100.00;101007.75;5111459;28;20052;-85
2023/05/07 07:58:12;;;;;;;11.63;4.68;;;;;;;11.00;100.00;101025.78;5114543;28;20423;-85
2023/05/07 08:00:38;;;;;;;10.32;3.38;;;;;;;10.96;100.00;101029.38;5105286;28;20565;-83
2023/05/07 08:03:07;;;;;;;13.85;5.50;;;;;;;10.77;100.00;101026.56;5109324;28;20465;-82
2023/05/07 08:05:34;;;;;;;12.05;3.80;;;;;;;10.93;100.00;101042.63;5106134;28;20085;-83
2023/05/07 08:08:00;;;;;;;12.30;4.45;;;;;;;10.73;100.00;101049.38;5111402;28;20052;-83
2023/05/07 08:10:27;;;;;;;16.50;5.50;;;;;;;10.40;100.00;101028.63;5113811;28;20401;-85
2023/05/07 08:12:54;;;;;;;18.02;5.03;;;;;;;10.58;100.00;101011.44;5105711;28;20043;-83
2023/05/07 08:15:21;;;;;;;16.35;5.07;;;;;;;10.35;100.00;100991.25;5108738;28;20051;-83
2023/05/07 08:17:47;;;;;;;12.88;4.30;;;;;;;10.77;100.00;101037.03;5110092;28;20432;-85
2023/05/07 08:20:14;;;;;;;12.20;4.35;;;;;;;10.60;100.00;101019.25;5108981;28;20048;-85
2023/05/07 08:22:41;;;;;;;14.68;5.45;;;;;;;11.04;100.00;101065.81;5108250;28;20131;-85
2023/05/07 08:25:08;;;;;;;11.13;4.20;;;;;;;10.54;100.00;101009.00;5113162;28;20105;-85
2023/05/07 08:27:35;;;;;;;14.48;5.20;;;;;;;10.57;100.00;101042.91;5113211;28;20732;-85
2023/05/07 08:30:03;;;;;;;14.77;5.43;;;;;;;10.69;100.00;101025.94;5110041;28;20043;-83
2023/05/07 08:32:29;;;;;;;12.48;5.00;;;;;;;10.51;100.00;101045.75;5107068;28;20044;-85
2023/05/07 08:34:56;;;;;;;14.77;6.07;;;;;;;10.61;100.00;101058.50;5110900;28;20059;-85
2023/05/07 08:37:23;;;;;;;17.80;6.03;;;;;;;10.52;100.00;101027.38;5111100;28;20048;-84
2023/05/07 08:39:50;;;;;;;22.75;7.18;;;;;;;10.63;100.00;101069.75;5104241;28;20425;-84
2023/05/07 08:42:17;;;;;;;14.60;5.25;;;;;;;10.80;100.00;101068.34;5108102;28;20078;-84
2023/05/07 08:44:49;;;;;;;14.85;5.60;;;;;;;10.96;100.00;101076.53;5110836;28;20429;-84
2023/05/07 08:47:16;;;;;;;20.17;5.70;;;;;;;10.64;100.00;101044.44;5113544;28;20420;-84
2023/05/07 08:49:43;;;;;;;24.10;7.18;;;;;;;10.59;100.00;101044.59;5107016;28;20577;-84
2023/05/07 08:52:12;;;;;;;32.95;7.60;;;;;;;10.56;100.00;101025.50;5105631;28;20481;-84
2023/05/07 08:54:39;;;;;;;27.80;7.90;;;;;;;10.64;100.00;101060.13;5097364;28;20075;-84
2023/05/07 08:57:06;;;;;;;38.58;10.45;;;;;;;10.63;100.00;101053.22;5102965;28;20047;-84
2023/05/07 08:59:32;;;;;;;19.23;6.43;;;;;;;10.63;100.00;101064.53;5111725;28;20409;-84
2023/05/07 09:01:59;;;;;;;18.15;7.45;;;;;;;10.83;100.00;101055.16;5101784;28;20453;-84
2023/05/07 09:04:27;;;;;;;26.92;8.88;;;;;;;10.85;100.00;101074.28;5113162;28;20047;-85
2023/05/07 09:06:55;;;;;;;16.42;6.57;;;;;;;10.79;100.00;101062.25;5110145;28;20062;-84
2023/05/07 09:09:21;;;;;;;16.85;7.88;;;;;;;10.70;100.00;101010.19;5105223;28;20055;-84
2023/05/07 09:11:48;;;;;;;19.20;6.97;;;;;;;10.88;100.00;101045.38;5110421;28;20417;-83
2023/05/07 09:14:15;;;;;;;25.17;9.48;;;;;;;10.88;100.00;101061.09;5101780;28;20048;-84
2023/05/07 09:16:41;;;;;;;27.17;9.07;;;;;;;11.26;100.00;101087.78;5102365;28;20071;-85
2023/05/07 09:19:08;;;;;;;27.52;7.47;;;;;;;11.02;100.00;101048.38;5101508;28;20082;-84
2023/05/07 09:21:35;;;;;;;23.45;8.00;;;;;;;11.17;100.00;101047.00;5102420;28;20055;-85
2023/05/07 09:24:02;;;;;;;39.38;10.02;;;;;;;10.98;100.00;101033.69;5105591;28;20059;-84
2023/05/07 09:26:29;;;;;;;27.70;8.10;;;;;;;11.47;100.00;101085.28;5097386;28;20048;-85
2023/05/07 09:28:55;;;;;;;22.88;8.38;;;;;;;11.13;100.00;101055.88;5099259;28;20044;-84
2023/05/07 09:31:23;;;;;;;17.45;6.50;;;;;;;11.39;100.00;101047.09;5103699;28;20047;-85
2023/05/07 09:33:50;;;;;;;37.92;9.82;;;;;;;11.41;100.00;101094.22;5111849;28;20108;-85
2023/05/07 09:36:17;;;;;;;45.08;11.50;;;;;;;11.08;100.00;101068.28;5111228;28;20052;-85
2023/05/07 09:38:45;;;;;;;63.30;12.13;;;;;;;10.93;100.00;101097.63;5101816;28;20044;-85
2023/05/07 09:41:12;;;;;;;38.22;10.13;;;;;;;11.09;100.00;101104.06;5108564;28;20067;-84
2023/05/07 09:43:40;;;;;;;75.80;13.82;;;;;;;11.20;100.00;101095.84;5109595;28;20039;-84
2023/05/07 09:46:12;;;;;;;62.28;11.15;;;;;;;11.05;100.00;101099.84;5111938;28;20051;-84
2023/05/07 09:48:40;;;;;;;49.60;11.65;;;;;;;11.00;100.00;101109.63;5102857;28;20051;-84
2023/05/07 09:51:31;;;;;;;31.98;9.52;;;;;;;10.93;100.00;101080.13;5094682;28;20047;-85
2023/05/07 09:54:00;;;;;;;20.85;8.00;;;;;;;11.30;100.00;101118.19;5110861;28;20534;-84
2023/05/07 09:56:29;;;;;;;64.50;12.32;;;;;;;10.41;100.00;101029.47;5104277;28;20050;-87
2023/05/07 09:59:00;;;;;;;39.67;9.57;;;;;;;10.83;100.00;101086.59;5101704;28;20056;-85
2023/05/07 10:01:28;;;;;;;33.58;9.85;;;;;;;11.21;100.00;101118.53;5108811;28;20040;-85
2023/05/07 10:03:55;;;;;;;28.35;9.65;;;;;;;11.16;100.00;101091.63;5099384;28;20102;-84
2023/05/07 10:06:25;;;;;;;79.95;14.57;;;;;;;11.04;100.00;101124.31;5106392;28;20470;-85
2023/05/07 10:08:52;;;;;;;76.18;15.13;;;;;;;10.74;100.00;101085.13;5101875;28;20063;-85
2023/05/07 10:11:20;;;;;;;56.88;12.23;;;;;;;10.83;100.00;101097.06;5113029;28;20055;-84
2023/05/07 10:13:48;;;;;;;28.80;9.82;;;;;;;10.74;100.00;101113.09;5103887;28;20059;-84
2023/05/07 10:16:15;;;;;;;37.40;9.70;;;;;;;10.83;100.00;101118.88;5102138;28;20161;-85
2023/05/07 10:18:43;;;;;;;23.85;9.10;;;;;;;11.08;100.00;101130.31;5100922;28;20051;-84
2023/05/07 10:21:18;;;;;;;24.85;9.45;;;;;;;11.06;100.00;101098.91;5100507;28;20452;-84
2023/05/07 10:23:50;;;;;;;22.30;8.73;;;;;;;11.17;100.00;101127.38;5103682;28;20071;-83
2023/05/07 10:26:23;;;;;;;20.73;7.68;;;;;;;11.23;100.00;101126.34;5108649;28;20062;-85
2023/05/07 10:28:56;;;;;;;16.67;7.30;;;;;;;10.95;100.00;101091.41;5093493;28;20048;-85
2023/05/07 10:31:58;;;;;;;14.90;6.95;;;;;;;11.15;100.00;101135.28;5101157;28;20100;-84
2023/05/07 10:34:32;;;;;;;15.55;6.78;;;;;;;11.37;100.00;101124.09;5055047;28;20052;-84
2023/05/07 10:37:00;;;;;;;17.02;7.22;;;;;;;10.68;100.00;101079.22;5106431;28;20059;-84
2023/05/07 10:39:27;;;;;;;13.10;5.88;;;;;;;10.76;100.00;101085.94;5111631;28;20477;-85
2023/05/07 10:41:54;;;;;;;12.73;6.22;;;;;;;10.96;100.00;101128.94;5105617;28;20040;-84
2023/05/07 10:44:28;;;;;;;10.57;4.60;;;;;;;10.60;100.00;101082.94;5109336;28;20048;-84
2023/05/07 10:47:12;;;;;;;10.65;4.85;;;;;;;10.99;100.00;101113.13;5105635;28;20048;-84
2023/05/07 10:49:42;;;;;;;11.18;5.05;;;;;;;11.27;100.00;101130.56;5114507;28;20055;-84
2023/05/07 10:52:17;;;;;;;10.85;4.30;;;;;;;10.87;100.00;101085.59;5113096;28;20047;-85
2023/05/07 10:54:45;;;;;;;9.52;4.03;;;;;;;11.30;100.00;101128.69;5097796;28;20051;-84
2023/05/07 10:57:37;;;;;;;10.93;4.05;;;;;;;11.22;100.00;101128.09;5095423;28;20046;-83
2023/05/07 11:00:24;;;;;;;10.95;4.15;;;;;;;10.98;100.00;101117.53;5091619;28;20059;-83
2023/05/07 11:03:06;;;;;;;9.40;3.25;;;;;;;11.23;100.00;101123.72;5105644;28;20374;-84
2023/05/07 11:05:34;;;;;;;10.98;4.70;;;;;;;10.97;100.00;101110.56;5101199;28;20465;-84
2023/05/07 11:08:04;;;;;;;11.52;5.03;;;;;;;11.06;100.00;101132.97;5103933;28;20051;-83
2023/05/07 11:10:52;;;;;;;11.40;4.82;;;;;;;11.18;100.00;101134.34;5097358;28;20066;-83
2023/05/07 11:13:41;;;;;;;10.90;4.97;;;;;;;11.29;100.00;101140.06;5103994;28;20040;-83
2023/05/07 11:16:19;;;;;;;9.20;3.67;;;;;;;11.08;100.00;101088.38;5100396;28;20415;-84